Time;durP1;ratioP1;P1;durP2;ratioP2;P2;SDS_P1;SDS_P2;PMS_P1;PMS_P2;Temp;Humidity;BMP_temperature;BMP_pressure;BME280_temperature;BME280_humidity;BME280_pressure;Samples;Min_cycle;Max_cycle;Signal;HPM_P1;HPM_P2
2023/01/11 00:01:53;;;;;;;0.10;0.10;;;7.30;99.90;;;;;;5061764;28;20211;-81
2023/01/11 00:04:20;;;;;;;0.10;0.10;;;7.20;99.90;;;;;;5060908;28;20201;-81
2023/01/11 00:06:46;;;;;;;0.10;0.10;;;7.30;99.90;;;;;;5060740;28;20270;-81
2023/01/11 00:09:12;;;;;;;0.10;0.10;;;7.30;99.90;;;;;;5062251;28;20223;-81
2023/01/11 00:11:37;;;;;;;0.10;0.10;;;7.30;99.90;;;;;;5062847;28;20185;-81
2023/01/11 00:14:03;;;;;;;0.10;0.10;;;7.20;99.90;;;;;;5063029;28;20189;-81
2023/01/11 00:16:29;;;;;;;0.10;0.10;;;7.20;99.90;;;;;;5062501;28;20277;-81
2023/01/11 00:18:55;;;;;;;0.10;0.10;;;7.20;99.90;;;;;;5062500;28;20188;-81
2023/01/11 00:21:21;;;;;;;0.00;0.00;;;7.20;99.90;;;;;;5061855;28;20905;-81
2023/01/11 00:23:48;;;;;;;0.10;0.10;;;7.10;99.90;;;;;;5064274;28;20191;-81
2023/01/11 00:26:14;;;;;;;0.10;0.10;;;7.10;99.90;;;;;;5063086;28;20205;-81
2023/01/11 00:28:40;;;;;;;0.10;0.10;;;7.10;99.90;;;;;;5062602;28;20185;-81
2023/01/11 00:31:05;;;;;;;0.10;0.10;;;7.10;99.90;;;;;;5064362;28;20191;-81
2023/01/11 00:33:31;;;;;;;0.00;0.00;;;7.10;99.90;;;;;;5063068;28;20181;-81
2023/01/11 00:35:56;;;;;;;0.10;0.10;;;7.10;99.90;;;;;;5062233;28;20208;-81
2023/01/11 00:49:32;;;;;;;0.10;0.10;;;7.20;99.90;;;;;;5063457;28;20185;-81
2023/01/11 00:51:57;;;;;;;0.10;0.10;;;7.20;99.90;;;;;;5061661;28;20195;-81
2023/01/11 00:54:23;;;;;;;0.10;0.10;;;7.20;99.90;;;;;;5065564;28;20244;-81
2023/01/11 00:56:48;;;;;;;0.10;0.10;;;7.20;99.90;;;;;;5068559;28;20296;-81
2023/01/11 00:59:14;;;;;;;0.10;0.10;;;7.30;99.90;;;;;;5065948;28;20724;-81
2023/01/11 01:01:39;;;;;;;0.10;0.10;;;7.20;99.90;;;;;;5066908;28;20272;-81
2023/01/11 01:04:05;;;;;;;0.10;0.10;;;7.20;99.90;;;;;;5066801;28;20269;-82
2023/01/11 01:06:30;;;;;;;0.10;0.10;;;7.20;99.90;;;;;;5063787;28;20207;-81
2023/01/11 01:08:56;;;;;;;0.00;0.00;;;7.20;99.90;;;;;;5065271;28;20558;-81
2023/01/11 01:11:22;;;;;;;0.10;0.10;;;7.20;99.90;;;;;;5066833;28;20185;-81
2023/01/11 01:16:32;;;;;;;0.00;0.00;;;7.20;99.90;;;;;;5066786;28;20231;-81
2023/01/11 01:18:58;;;;;;;0.10;0.10;;;7.20;99.90;;;;;;5065676;28;20190;-81
2023/01/11 01:21:25;;;;;;;0.10;0.10;;;7.20;99.90;;;;;;5064471;28;20627;-81
2023/01/11 01:23:54;;;;;;;0.10;0.10;;;7.30;99.90;;;;;;5066362;28;20265;-81
2023/01/11 01:26:21;;;;;;;0.10;0.10;;;7.30;99.90;;;;;;5065471;28;20248;-81
2023/01/11 01:28:46;;;;;;;0.10;0.10;;;7.40;99.90;;;;;;5066353;28;20186;-81
2023/01/11 01:31:12;;;;;;;0.10;0.10;;;7.40;99.90;;;;;;5066281;28;20187;-81
2023/01/11 01:33:38;;;;;;;0.10;0.10;;;7.50;99.90;;;;;;5067509;28;20241;-81
2023/01/11 01:36:04;;;;;;;0.10;0.10;;;7.50;99.90;;;;;;5066746;28;20280;-81
2023/01/11 01:38:30;;;;;;;0.10;0.10;;;7.50;99.90;;;;;;5065243;28;20557;-81
2023/01/11 01:40:56;;;;;;;0.10;0.10;;;7.50;99.90;;;;;;5065618;28;20214;-81
2023/01/11 01:43:42;;;;;;;0.10;0.10;;;7.50;99.90;;;;;;5066867;28;20196;-81
2023/01/11 01:46:08;;;;;;;0.10;0.10;;;7.50;99.90;;;;;;5065743;28;20209;-81
2023/01/11 01:48:35;;;;;;;0.10;0.10;;;7.50;99.90;;;;;;5064680;28;20204;-81
2023/01/11 01:51:01;;;;;;;0.10;0.10;;;7.50;99.90;;;;;;5064345;28;20664;-81
2023/01/11 01:53:34;;;;;;;0.10;0.10;;;7.50;99.90;;;;;;5066189;28;20195;-81
2023/01/11 01:56:02;;;;;;;0.10;0.10;;;7.60;99.90;;;;;;5064519;28;20213;-82
2023/01/11 01:58:42;;;;;;;0.10;0.10;;;7.60;99.90;;;;;;5064147;28;20657;-81
2023/01/11 02:03:53;;;;;;;0.00;0.00;;;7.60;99.90;;;;;;5067520;28;20186;-81
2023/01/11 02:06:21;;;;;;;0.10;0.10;;;7.60;99.90;;;;;;5063258;28;20210;-81
2023/01/11 02:08:55;;;;;;;0.10;0.10;;;7.70;99.90;;;;;;5065398;28;20196;-81
2023/01/11 02:11:30;;;;;;;0.10;0.10;;;7.70;99.90;;;;;;5065722;28;20248;-81
2023/01/11 02:14:04;;;;;;;0.10;0.10;;;7.60;99.90;;;;;;5072603;28;20182;-81
2023/01/11 02:16:30;;;;;;;0.07;0.07;;;7.60;99.90;;;;;;5064286;28;20740;-81
2023/01/11 02:18:57;;;;;;;0.10;0.10;;;7.70;99.90;;;;;;5063926;28;20193;-81
2023/01/11 02:21:25;;;;;;;0.00;0.00;;;7.70;99.90;;;;;;5065925;28;20213;-81
2023/01/11 02:24:21;;;;;;;0.10;0.10;;;7.70;99.90;;;;;;5064642;28;20197;-81
2023/01/11 02:27:01;;;;;;;0.10;0.10;;;7.80;99.90;;;;;;5065821;28;20191;-81
2023/01/11 02:29:49;;;;;;;0.10;0.10;;;7.70;99.90;;;;;;5063908;28;20194;-81
2023/01/11 02:32:43;;;;;;;0.10;0.10;;;7.70;99.90;;;;;;5062262;28;20559;-81
2023/01/11 02:35:36;;;;;;;0.10;0.10;;;7.80;99.90;;;;;;5061448;28;20257;-82
2023/01/11 02:38:14;;;;;;;0.10;0.10;;;7.80;99.90;;;;;;5063402;28;20716;-81
2023/01/11 02:40:52;;;;;;;0.10;0.10;;;7.80;99.90;;;;;;5061862;28;20211;-81
2023/01/11 02:46:48;;;;;;;0.10;0.10;;;7.80;99.90;;;;;;5064559;28;20629;-81
2023/01/11 02:49:35;;;;;;;0.10;0.10;;;7.80;99.90;;;;;;5074300;28;20656;-81
2023/01/11 02:52:19;;;;;;;0.10;0.10;;;7.80;99.90;;;;;;5065029;28;20187;-81
2023/01/11 02:54:52;;;;;;;0.10;0.10;;;7.70;99.90;;;;;;5063476;28;20360;-81
2023/01/11 02:57:19;;;;;;;0.10;0.10;;;7.80;99.90;;;;;;5065211;28;20245;-81
2023/01/11 02:59:48;;;;;;;0.07;0.07;;;7.80;99.90;;;;;;5062271;28;20197;-80
2023/01/11 03:02:15;;;;;;;0.10;0.10;;;7.80;99.90;;;;;;5064266;28;20209;-81
2023/01/11 03:04:41;;;;;;;0.10;0.10;;;7.90;99.90;;;;;;5060388;28;20204;-81
2023/01/11 03:07:21;;;;;;;0.10;0.10;;;7.90;99.90;;;;;;5063782;28;20203;-82
2023/01/11 03:10:20;;;;;;;0.10;0.10;;;7.90;99.90;;;;;;5062518;28;20188;-81
2023/01/11 03:12:55;;;;;;;0.10;0.10;;;7.90;99.90;;;;;;5064060;28;20185;-82
2023/01/11 03:15:29;;;;;;;0.10;0.10;;;7.90;99.90;;;;;;5060202;28;20298;-81
2023/01/11 03:18:44;;;;;;;0.10;0.10;;;7.90;99.90;;;;;;5061798;28;20181;-81
2023/01/11 03:21:29;;;;;;;0.10;0.10;;;7.90;99.90;;;;;;5056283;28;20212;-81
2023/01/11 03:24:04;;;;;;;0.10;0.10;;;7.90;99.90;;;;;;5063020;28;20206;-81
2023/01/11 03:26:37;;;;;;;0.10;0.10;;;7.90;99.90;;;;;;5062216;28;20222;-81
2023/01/11 03:29:29;;;;;;;0.10;0.10;;;8.00;99.90;;;;;;5062628;28;20415;-81
2023/01/11 03:32:39;;;;;;;0.10;0.10;;;7.90;99.90;;;;;;5063325;28;20203;-81
2023/01/11 03:35:33;;;;;;;0.10;0.10;;;7.90;99.90;;;;;;5016048;28;20208;-81
2023/01/11 03:38:22;;;;;;;0.10;0.10;;;7.90;99.90;;;;;;5059569;28;21781;-81
2023/01/11 03:41:12;;;;;;;0.10;0.10;;;7.90;99.90;;;;;;5062277;28;20683;-81
2023/01/11 03:43:42;;;;;;;0.10;0.10;;;7.90;99.90;;;;;;5061317;28;20268;-81
2023/01/11 03:46:13;;;;;;;0.10;0.10;;;8.00;99.90;;;;;;5062163;28;20268;-81
2023/01/11 03:48:50;;;;;;;0.10;0.10;;;8.00;99.90;;;;;;5062166;28;20179;-81
2023/01/11 03:51:21;;;;;;;0.10;0.10;;;7.90;99.90;;;;;;5060244;28;20179;-81
2023/01/11 03:53:48;;;;;;;0.10;0.10;;;7.90;99.90;;;;;;5061171;28;21138;-81
2023/01/11 03:56:19;;;;;;;0.10;0.10;;;8.00;99.90;;;;;;5063670;28;20204;-81
2023/01/11 03:58:45;;;;;;;0.10;0.10;;;8.00;99.90;;;;;;5062719;28;20217;-81
2023/01/11 04:01:11;;;;;;;0.10;0.10;;;8.00;99.90;;;;;;5059113;28;20207;-81
2023/01/11 04:03:37;;;;;;;0.10;0.10;;;8.00;99.90;;;;;;5063543;28;20665;-81
2023/01/11 04:06:03;;;;;;;0.10;0.10;;;8.10;99.90;;;;;;5060496;28;20208;-81
2023/01/11 04:08:30;;;;;;;0.10;0.10;;;8.10;99.90;;;;;;5064029;28;20181;-81
2023/01/11 04:10:55;;;;;;;0.10;0.10;;;8.10;99.90;;;;;;5061383;28;20218;-81
2023/01/11 04:13:21;;;;;;;0.10;0.10;;;8.10;99.90;;;;;;5063932;28;20194;-81
2023/01/11 04:15:46;;;;;;;0.10;0.10;;;8.10;99.90;;;;;;5062277;28;20219;-81
2023/01/11 04:18:12;;;;;;;0.10;0.10;;;8.10;99.90;;;;;;5064473;28;20181;-81
2023/01/11 04:20:39;;;;;;;0.00;0.00;;;8.10;99.90;;;;;;5062602;28;20213;-81
2023/01/11 04:23:06;;;;;;;0.00;0.00;;;8.20;99.90;;;;;;5063911;28;20173;-81
2023/01/11 04:25:32;;;;;;;0.10;0.10;;;8.20;99.90;;;;;;5063112;28;20205;-81
2023/01/11 04:27:58;;;;;;;0.10;0.10;;;8.20;99.90;;;;;;5065293;28;20179;-81
2023/01/11 04:30:24;;;;;;;0.10;0.10;;;8.20;99.90;;;;;;5067162;28;20285;-82
2023/01/11 04:32:49;;;;;;;0.10;0.10;;;8.20;99.90;;;;;;5067850;28;21014;-81
2023/01/11 04:35:15;;;;;;;0.10;0.10;;;8.20;99.90;;;;;;5066933;28;20206;-81
2023/01/11 04:37:41;;;;;;;0.10;0.10;;;8.30;99.90;;;;;;5067019;28;20192;-82
2023/01/11 04:40:07;;;;;;;0.10;0.10;;;8.30;99.90;;;;;;5069108;28;20182;-81
2023/01/11 04:42:32;;;;;;;0.10;0.10;;;8.10;99.90;;;;;;5069067;28;20186;-82
2023/01/11 04:44:58;;;;;;;0.10;0.10;;;8.10;99.90;;;;;;5068920;28;20204;-82
2023/01/11 04:47:24;;;;;;;0.10;0.10;;;8.00;99.90;;;;;;5068533;28;20197;-81
2023/01/11 04:49:50;;;;;;;0.10;0.10;;;8.00;99.90;;;;;;5069101;28;20274;-81
2023/01/11 04:52:18;;;;;;;0.10;0.10;;;8.10;99.90;;;;;;5065756;28;20240;-81
2023/01/11 04:54:43;;;;;;;0.03;0.03;;;8.20;99.90;;;;;;5066097;28;20681;-81
2023/01/11 04:57:14;;;;;;;0.10;0.10;;;8.30;99.90;;;;;;5068649;28;20187;-81
2023/01/11 04:59:39;;;;;;;0.00;0.00;;;8.30;99.90;;;;;;5066642;28;20206;-81
2023/01/11 05:02:05;;;;;;;0.10;0.10;;;8.30;99.90;;;;;;5069428;28;20302;-81
2023/01/11 05:04:31;;;;;;;0.10;0.10;;;8.40;99.90;;;;;;5065602;28;20207;-81
2023/01/11 05:06:56;;;;;;;0.10;0.10;;;8.40;99.90;;;;;;5066045;28;20193;-81
2023/01/11 05:09:22;;;;;;;0.10;0.10;;;8.40;99.90;;;;;;5067238;28;20192;-81
2023/01/11 05:11:47;;;;;;;0.10;0.10;;;8.50;99.90;;;;;;5066541;28;20186;-81
2023/01/11 05:14:14;;;;;;;0.10;0.10;;;8.50;99.90;;;;;;5066841;28;20213;-81
2023/01/11 05:16:40;;;;;;;0.10;0.10;;;8.50;99.90;;;;;;5067137;28;20210;-81
2023/01/11 05:19:06;;;;;;;0.10;0.10;;;8.50;99.90;;;;;;5067159;28;20211;-81
2023/01/11 05:21:34;;;;;;;0.10;0.10;;;8.50;99.90;;;;;;5063110;28;20228;-82
2023/01/11 05:24:02;;;;;;;0.10;0.10;;;8.50;99.90;;;;;;5065276;28;20188;-82
2023/01/11 05:26:31;;;;;;;0.10;0.10;;;8.50;99.90;;;;;;5067080;28;20215;-81
2023/01/11 05:29:02;;;;;;;0.00;0.00;;;8.50;99.90;;;;;;5068558;28;20653;-81
2023/01/11 05:31:28;;;;;;;0.10;0.10;;;8.60;99.90;;;;;;5067749;28;20185;-81
2023/01/11 05:33:56;;;;;;;0.10;0.10;;;8.60;99.90;;;;;;5064724;28;20441;-80
2023/01/11 05:36:23;;;;;;;0.10;0.10;;;8.70;99.90;;;;;;5066958;28;20208;-81
2023/01/11 05:38:50;;;;;;;0.10;0.10;;;8.70;99.90;;;;;;5065632;28;20191;-81
2023/01/11 05:41:17;;;;;;;0.10;0.10;;;8.80;99.90;;;;;;5066061;28;20211;-82
2023/01/11 05:46:30;;;;;;;0.00;0.00;;;8.80;99.90;;;;;;5068902;28;20354;-81
2023/01/11 05:48:57;;;;;;;0.10;0.10;;;8.80;99.90;;;;;;5065918;28;20177;-82
2023/01/11 05:51:23;;;;;;;0.10;0.10;;;8.80;99.90;;;;;;5066194;28;21118;-81
2023/01/11 05:53:49;;;;;;;0.10;0.10;;;8.80;99.90;;;;;;5064235;28;20194;-82
2023/01/11 05:56:14;;;;;;;0.10;0.10;;;8.80;99.90;;;;;;5064758;28;20204;-81
2023/01/11 05:58:40;;;;;;;0.10;0.10;;;8.90;99.90;;;;;;5064191;28;20560;-81
2023/01/11 06:01:05;;;;;;;0.10;0.10;;;8.80;99.90;;;;;;5064071;28;20208;-81
2023/01/11 06:03:31;;;;;;;0.10;0.10;;;8.80;99.90;;;;;;5063855;28;20276;-81
2023/01/11 06:05:58;;;;;;;0.10;0.10;;;8.90;99.90;;;;;;5064612;28;20200;-81
2023/01/11 06:08:24;;;;;;;0.10;0.10;;;8.90;99.90;;;;;;5065315;28;20195;-81
2023/01/11 06:10:51;;;;;;;0.10;0.10;;;8.80;99.90;;;;;;5063271;28;20609;-82
2023/01/11 06:13:25;;;;;;;0.10;0.10;;;8.80;99.90;;;;;;5065673;28;20257;-83
2023/01/11 06:15:56;;;;;;;0.10;0.10;;;8.90;99.90;;;;;;5064277;28;20206;-83
2023/01/11 06:18:22;;;;;;;0.10;0.10;;;8.90;99.90;;;;;;5063500;28;20246;-82
2023/01/11 06:20:49;;;;;;;0.10;0.10;;;8.90;99.90;;;;;;5063278;28;20212;-82
2023/01/11 06:23:15;;;;;;;0.10;0.10;;;8.80;99.90;;;;;;5060196;28;20189;-82
2023/01/11 06:25:41;;;;;;;0.10;0.10;;;8.90;99.90;;;;;;5069045;28;20709;-81
2023/01/11 06:28:06;;;;;;;0.10;0.10;;;8.90;99.90;;;;;;5067898;28;20181;-82
2023/01/11 06:30:32;;;;;;;0.10;0.10;;;8.80;99.90;;;;;;5065062;28;20192;-82
2023/01/11 06:33:04;;;;;;;0.10;0.10;;;8.80;99.90;;;;;;5065854;28;20180;-82
2023/01/11 06:35:37;;;;;;;0.10;0.10;;;8.90;99.90;;;;;;5064478;28;20215;-82
2023/01/11 06:38:03;;;;;;;0.10;0.10;;;8.90;99.90;;;;;;5073867;28;20180;-82
2023/01/11 06:40:29;;;;;;;0.10;0.10;;;8.90;99.90;;;;;;5065462;28;20230;-82
2023/01/11 06:42:54;;;;;;;0.10;0.10;;;8.90;99.90;;;;;;5062495;28;20201;-81
2023/01/11 06:45:20;;;;;;;0.10;0.10;;;8.90;99.90;;;;;;5065588;28;20210;-82
2023/01/11 06:47:46;;;;;;;0.10;0.10;;;8.90;99.90;;;;;;5064774;28;20183;-81
2023/01/11 06:50:11;;;;;;;0.10;0.10;;;9.00;99.90;;;;;;5065810;28;20181;-81
2023/01/11 06:52:37;;;;;;;0.10;0.10;;;9.00;99.90;;;;;;5066378;28;20676;-82
2023/01/11 06:55:02;;;;;;;0.10;0.10;;;9.00;99.90;;;;;;5067351;28;20707;-82
2023/01/11 06:57:28;;;;;;;0.10;0.10;;;9.00;99.90;;;;;;5066016;28;20215;-82
2023/01/11 06:59:54;;;;;;;0.00;0.00;;;9.00;99.90;;;;;;5066699;28;20212;-81
2023/01/11 07:02:19;;;;;;;0.03;0.03;;;9.00;99.90;;;;;;5062669;28;20209;-82
2023/01/11 07:04:45;;;;;;;0.10;0.10;;;9.00;99.90;;;;;;5066443;28;20211;-81
2023/01/11 07:07:11;;;;;;;0.10;0.10;;;9.10;99.90;;;;;;5067286;28;20204;-82
2023/01/11 07:09:36;;;;;;;0.10;0.10;;;9.10;99.90;;;;;;5066314;28;20212;-82
2023/01/11 07:12:02;;;;;;;0.10;0.10;;;9.10;99.90;;;;;;5062343;28;20188;-82
2023/01/11 07:14:27;;;;;;;0.10;0.10;;;9.10;99.90;;;;;;5065906;28;20203;-81
2023/01/11 07:16:53;;;;;;;0.10;0.10;;;9.10;99.90;;;;;;5065507;28;20191;-82
2023/01/11 07:19:18;;;;;;;0.10;0.10;;;9.10;99.90;;;;;;5065334;28;21030;-82
2023/01/11 07:21:44;;;;;;;0.10;0.10;;;9.20;99.90;;;;;;5064696;28;20212;-81
2023/01/11 07:24:09;;;;;;;0.10;0.10;;;9.20;99.90;;;;;;5066798;28;20380;-81
2023/01/11 07:26:40;;;;;;;0.00;0.00;;;9.10;99.90;;;;;;5062887;28;20215;-81
2023/01/11 07:29:09;;;;;;;0.10;0.10;;;9.20;99.90;;;;;;5060312;28;20694;-81
2023/01/11 07:31:35;;;;;;;0.10;0.10;;;9.20;99.90;;;;;;5062940;28;20615;-81
2023/01/11 07:34:01;;;;;;;0.10;0.10;;;9.20;99.90;;;;;;5070906;28;20310;-81
2023/01/11 07:36:28;;;;;;;0.10;0.10;;;9.20;99.90;;;;;;5062818;28;20212;-81
2023/01/11 07:38:54;;;;;;;0.10;0.10;;;9.30;99.90;;;;;;5063413;28;20222;-81
2023/01/11 07:44:04;;;;;;;0.10;0.10;;;9.30;99.90;;;;;;5062509;28;20226;-81
2023/01/11 07:46:29;;;;;;;0.00;0.00;;;9.30;99.90;;;;;;5062415;28;20212;-81
2023/01/11 07:48:55;;;;;;;0.10;0.10;;;9.40;99.90;;;;;;5062236;28;20256;-83
2023/01/11 07:51:23;;;;;;;0.10;0.10;;;9.40;99.90;;;;;;5065082;28;20211;-82
2023/01/11 07:53:49;;;;;;;0.10;0.10;;;9.40;99.90;;;;;;5063184;28;20647;-82
2023/01/11 07:56:15;;;;;;;0.10;0.10;;;9.40;99.90;;;;;;5062804;28;20756;-83
2023/01/11 07:58:40;;;;;;;0.10;0.10;;;9.40;99.90;;;;;;5063201;28;20291;-82
2023/01/11 08:01:06;;;;;;;0.10;0.10;;;9.40;99.90;;;;;;5066452;28;20211;-83
2023/01/11 08:03:31;;;;;;;0.10;0.10;;;9.40;99.90;;;;;;5064109;28;20196;-83
2023/01/11 08:05:57;;;;;;;0.00;0.00;;;9.50;99.90;;;;;;5061332;28;20208;-83
2023/01/11 08:08:22;;;;;;;0.10;0.10;;;9.50;99.90;;;;;;5062771;28;20220;-83
2023/01/11 08:14:37;;;;;;;0.03;0.03;;;9.50;99.90;;;;;;5063518;28;20233;-83
2023/01/11 08:16:20;;;;;;;0.10;0.10;;;9.50;99.90;;;;;;5060701;28;20250;-82
2023/01/11 08:18:46;;;;;;;0.10;0.10;;;9.50;99.90;;;;;;5049392;28;20216;-82
2023/01/11 08:21:11;;;;;;;0.10;0.10;;;9.50;99.90;;;;;;5060915;28;20201;-82
2023/01/11 08:23:37;;;;;;;0.10;0.10;;;9.50;99.90;;;;;;5057340;28;20292;-82
2023/01/11 08:26:02;;;;;;;0.10;0.10;;;9.60;99.90;;;;;;5060402;28;20206;-82
2023/01/11 08:28:28;;;;;;;0.10;0.10;;;9.60;99.90;;;;;;5053965;28;20197;-81
2023/01/11 08:30:53;;;;;;;0.07;0.07;;;9.60;99.90;;;;;;5062921;28;20225;-82
2023/01/11 08:33:18;;;;;;;0.10;0.10;;;9.70;99.90;;;;;;5059737;28;20661;-81
2023/01/11 08:35:44;;;;;;;0.10;0.10;;;9.70;99.90;;;;;;5057952;28;20200;-81
2023/01/11 08:38:10;;;;;;;0.10;0.10;;;9.70;99.90;;;;;;5060373;28;20189;-80
2023/01/11 08:40:35;;;;;;;0.10;0.10;;;9.70;99.90;;;;;;5059900;28;20307;-81
2023/01/11 08:43:01;;;;;;;0.10;0.10;;;9.70;99.90;;;;;;5057870;28;20526;-81
2023/01/11 08:45:27;;;;;;;0.10;0.10;;;9.80;99.90;;;;;;5060447;28;20681;-81
2023/01/11 08:47:53;;;;;;;0.10;0.10;;;9.80;99.90;;;;;;5059260;28;20708;-82
2023/01/11 08:50:20;;;;;;;0.00;0.00;;;9.80;99.90;;;;;;5057304;28;20192;-81
2023/01/11 08:52:45;;;;;;;0.10;0.10;;;9.80;99.90;;;;;;5060281;28;20213;-82
2023/01/11 08:55:11;;;;;;;0.00;0.00;;;9.90;99.90;;;;;;5061503;28;20231;-82
2023/01/11 08:57:36;;;;;;;0.10;0.10;;;9.90;99.90;;;;;;5060324;28;20187;-83
2023/01/11 09:00:06;;;;;;;0.10;0.10;;;9.90;99.90;;;;;;5060704;28;20196;-82
2023/01/11 09:02:32;;;;;;;0.10;0.10;;;9.90;99.90;;;;;;5058576;28;20205;-82
2023/01/11 09:04:58;;;;;;;0.10;0.10;;;9.90;99.90;;;;;;5053645;28;20666;-84
2023/01/11 09:07:23;;;;;;;0.10;0.10;;;9.90;99.90;;;;;;5055872;28;20188;-81
2023/01/11 09:09:50;;;;;;;0.00;0.00;;;10.00;99.90;;;;;;5057611;28;21074;-82
2023/01/11 09:12:16;;;;;;;0.10;0.10;;;10.00;99.90;;;;;;5058270;28;20181;-82
2023/01/11 09:14:42;;;;;;;0.10;0.10;;;10.00;99.90;;;;;;5060270;28;20195;-82
2023/01/11 09:17:07;;;;;;;0.00;0.00;;;10.00;99.90;;;;;;5063147;28;20205;-82
2023/01/11 09:19:33;;;;;;;0.03;0.03;;;10.10;99.90;;;;;;5060579;28;20826;-82
2023/01/11 09:22:01;;;;;;;0.10;0.10;;;10.10;99.90;;;;;;5061360;28;21290;-82
2023/01/11 09:24:27;;;;;;;0.03;0.03;;;10.10;99.90;;;;;;5065031;28;20173;-82
2023/01/11 09:26:52;;;;;;;0.10;0.10;;;10.10;99.90;;;;;;5059971;28;20184;-82
2023/01/11 09:29:18;;;;;;;0.10;0.10;;;10.10;99.90;;;;;;5066784;28;20185;-82
2023/01/11 09:31:44;;;;;;;0.10;0.10;;;10.20;99.90;;;;;;5064427;28;20193;-82
2023/01/11 09:34:11;;;;;;;0.10;0.10;;;10.20;99.90;;;;;;5060562;28;20281;-82
2023/01/11 09:36:39;;;;;;;0.10;0.10;;;10.20;99.90;;;;;;5062506;28;20208;-82
2023/01/11 09:39:08;;;;;;;0.10;0.10;;;10.20;99.90;;;;;;5065631;28;20185;-82
2023/01/11 09:41:40;;;;;;;0.10;0.10;;;10.20;99.90;;;;;;5063383;28;20213;-82
2023/01/11 09:44:17;;;;;;;0.10;0.10;;;10.30;99.90;;;;;;5063594;28;20275;-82
2023/01/11 09:46:54;;;;;;;0.10;0.10;;;10.30;99.90;;;;;;5060781;28;20220;-82
2023/01/11 09:49:26;;;;;;;0.10;0.10;;;10.30;99.90;;;;;;5055629;28;20678;-82
2023/01/11 09:52:04;;;;;;;0.10;0.10;;;10.40;99.90;;;;;;5056939;28;20274;-83
2023/01/11 09:54:30;;;;;;;0.07;0.07;;;10.40;99.90;;;;;;5061079;28;20186;-82
2023/01/11 09:57:12;;;;;;;0.10;0.10;;;10.40;99.90;;;;;;5063411;28;20191;-81
2023/01/11 09:59:49;;;;;;;0.10;0.10;;;10.50;99.90;;;;;;5065452;28;20909;-82
2023/01/11 10:02:34;;;;;;;0.00;0.00;;;10.50;99.90;;;;;;5060293;28;20223;-81
2023/01/11 10:05:54;;;;;;;0.10;0.10;;;10.50;99.90;;;;;;5062799;28;20228;-82
2023/01/11 10:08:29;;;;;;;0.00;0.00;;;10.50;99.90;;;;;;5047105;28;20297;-82
2023/01/11 10:11:19;;;;;;;0.10;0.10;;;10.50;99.90;;;;;;5060887;28;20180;-82
2023/01/11 10:14:00;;;;;;;0.10;0.10;;;10.50;99.90;;;;;;5061308;28;20192;-82
2023/01/11 10:16:46;;;;;;;0.10;0.10;;;10.60;99.90;;;;;;5063999;28;21340;-82
2023/01/11 10:19:19;;;;;;;0.00;0.00;;;10.60;99.90;;;;;;5065034;28;20181;-82
2023/01/11 10:21:54;;;;;;;0.10;0.10;;;10.60;99.90;;;;;;5063642;28;20208;-82
2023/01/11 10:24:29;;;;;;;0.10;0.10;;;10.60;99.90;;;;;;5061910;28;20199;-82
2023/01/11 10:26:57;;;;;;;0.10;0.10;;;10.60;99.90;;;;;;5062035;28;20177;-82
2023/01/11 10:29:41;;;;;;;0.10;0.10;;;10.60;99.90;;;;;;5064217;28;20205;-82
2023/01/11 10:32:52;;;;;;;0.10;0.10;;;10.60;99.90;;;;;;5063525;28;20225;-82
2023/01/11 10:35:44;;;;;;;0.10;0.10;;;10.50;99.90;;;;;;5059959;28;20214;-82
2023/01/11 10:38:39;;;;;;;0.10;0.10;;;10.50;99.90;;;;;;5062917;28;20181;-82
2023/01/11 10:41:18;;;;;;;0.10;0.10;;;10.40;99.90;;;;;;5065163;28;20673;-82
2023/01/11 10:43:48;;;;;;;0.10;0.10;;;10.40;99.90;;;;;;5061379;28;20666;-81
2023/01/11 10:46:20;;;;;;;0.10;0.10;;;10.40;99.90;;;;;;5062068;28;20213;-82
2023/01/11 10:48:46;;;;;;;0.10;0.10;;;10.30;99.90;;;;;;5060273;28;20643;-82
2023/01/11 10:51:28;;;;;;;0.10;0.10;;;10.30;99.90;;;;;;5061926;28;20239;-82
2023/01/11 10:54:03;;;;;;;0.07;0.07;;;10.40;99.90;;;;;;5064526;28;20180;-82
2023/01/11 10:57:07;;;;;;;0.10;0.10;;;10.50;99.90;;;;;;5063910;28;20208;-82
2023/01/11 10:59:55;;;;;;;0.10;0.10;;;10.60;99.90;;;;;;5063872;28;20567;-82
2023/01/11 11:02:39;;;;;;;0.10;0.10;;;10.60;99.90;;;;;;5058959;28;20205;-82
2023/01/11 11:05:38;;;;;;;0.10;0.10;;;10.80;99.90;;;;;;5056661;28;20215;-82
2023/01/11 11:08:16;;;;;;;0.10;0.10;;;10.80;99.90;;;;;;5062043;28;20226;-82
2023/01/11 11:10:59;;;;;;;0.10;0.10;;;10.90;99.90;;;;;;5068233;28;20188;-82
2023/01/11 11:13:40;;;;;;;0.10;0.10;;;10.90;99.90;;;;;;5055220;28;20671;-82
2023/01/11 11:16:21;;;;;;;0.10;0.10;;;11.00;99.90;;;;;;5060419;28;20212;-82
2023/01/11 11:18:57;;;;;;;0.10;0.10;;;11.10;99.90;;;;;;5060592;28;20197;-82
2023/01/11 11:21:27;;;;;;;0.10;0.10;;;11.10;99.90;;;;;;5059881;28;20216;-82
2023/01/11 11:24:08;;;;;;;0.10;0.10;;;11.20;99.90;;;;;;5058603;28;20474;-82
2023/01/11 11:26:38;;;;;;;0.10;0.10;;;11.40;99.90;;;;;;5077301;28;20216;-82
2023/01/11 11:29:06;;;;;;;0.10;0.10;;;11.50;99.90;;;;;;5057597;28;20177;-82
2023/01/11 11:31:35;;;;;;;0.10;0.10;;;11.50;99.90;;;;;;5063953;28;20212;-82
2023/01/11 11:34:06;;;;;;;0.07;0.07;;;11.60;99.90;;;;;;5061355;28;20233;-82
2023/01/11 11:36:44;;;;;;;0.10;0.10;;;11.80;99.90;;;;;;5061603;28;20316;-82
2023/01/11 11:39:19;;;;;;;0.10;0.10;;;11.90;99.90;;;;;;5067592;28;20200;-82
2023/01/11 11:41:50;;;;;;;0.10;0.10;;;11.90;99.90;;;;;;5065462;28;20541;-82
2023/01/11 11:44:19;;;;;;;0.10;0.10;;;11.90;99.90;;;;;;5064528;28;20221;-82
2023/01/11 11:46:59;;;;;;;0.10;0.10;;;12.00;99.90;;;;;;5066804;28;20208;-82
2023/01/11 11:49:25;;;;;;;0.10;0.10;;;11.90;99.90;;;;;;5066019;28;20272;-81
2023/01/11 11:51:52;;;;;;;0.10;0.10;;;11.80;99.90;;;;;;5064158;28;20226;-82
2023/01/11 11:54:28;;;;;;;0.10;0.10;;;11.80;99.90;;;;;;5064155;28;20690;-81
2023/01/11 11:56:56;;;;;;;0.10;0.10;;;11.80;99.90;;;;;;5063247;28;20222;-82
2023/01/11 11:59:27;;;;;;;0.10;0.10;;;11.70;99.90;;;;;;5063627;28;20265;-82
2023/01/11 12:02:02;;;;;;;0.10;0.10;;;11.70;99.90;;;;;;5062761;28;20662;-82
2023/01/11 12:04:48;;;;;;;0.10;0.10;;;11.60;99.90;;;;;;5059595;28;20196;-82
2023/01/11 12:07:17;;;;;;;0.10;0.10;;;11.60;99.90;;;;;;5057957;28;20180;-81
2023/01/11 12:09:49;;;;;;;0.10;0.10;;;11.60;99.90;;;;;;5060745;28;20591;-82
2023/01/11 12:12:20;;;;;;;0.00;0.00;;;11.60;99.90;;;;;;5074080;28;20283;-81
2023/01/11 12:15:04;;;;;;;0.10;0.10;;;11.50;99.90;;;;;;5058225;28;20220;-81
2023/01/11 12:17:30;;;;;;;0.10;0.10;;;11.40;99.90;;;;;;5064654;28;20199;-81
2023/01/11 12:19:56;;;;;;;0.10;0.10;;;11.50;99.90;;;;;;5062803;28;20181;-81
2023/01/11 12:22:23;;;;;;;0.10;0.10;;;11.50;99.90;;;;;;5061365;28;20209;-81
2023/01/11 12:25:23;;;;;;;0.10;0.10;;;11.50;99.90;;;;;;5063036;28;20200;-81
2023/01/11 12:28:07;;;;;;;0.10;0.10;;;11.50;99.90;;;;;;5065006;28;20271;-81
2023/01/11 12:30:55;;;;;;;0.10;0.10;;;11.60;99.90;;;;;;5062716;28;20173;-81
2023/01/11 12:33:44;;;;;;;0.10;0.10;;;11.60;99.90;;;;;;5063907;28;20560;-81
2023/01/11 12:36:39;;;;;;;0.10;0.10;;;11.60;99.90;;;;;;5064221;28;20205;-81
2023/01/11 12:39:19;;;;;;;0.10;0.10;;;11.60;99.90;;;;;;5074061;28;20256;-81
2023/01/11 12:42:12;;;;;;;0.10;0.10;;;11.70;99.90;;;;;;5062344;28;20240;-81
2023/01/11 12:44:49;;;;;;;0.10;0.10;;;11.60;99.90;;;;;;5061418;28;20533;-81
2023/01/11 12:47:41;;;;;;;0.10;0.10;;;11.60;99.90;;;;;;5062572;28;20264;-81
2023/01/11 12:50:23;;;;;;;0.10;0.10;;;11.60;99.90;;;;;;5061574;28;20184;-81
2023/01/11 12:53:12;;;;;;;0.10;0.10;;;11.60;99.90;;;;;;5064823;28;20183;-81
2023/01/11 12:55:54;;;;;;;0.10;0.10;;;11.60;99.90;;;;;;5066586;28;20693;-80
2023/01/11 12:59:00;;;;;;;0.10;0.10;;;11.60;99.90;;;;;;5064594;28;20594;-81
2023/01/11 13:01:36;;;;;;;0.10;0.10;;;11.60;99.90;;;;;;5026891;28;20230;-81
2023/01/11 13:04:42;;;;;;;0.10;0.10;;;11.60;99.90;;;;;;5067422;28;20203;-81
2023/01/11 13:07:30;;;;;;;0.10;0.10;;;11.50;99.90;;;;;;5068403;28;20650;-81
2023/01/11 13:10:28;;;;;;;0.10;0.10;;;11.50;99.90;;;;;;5070739;28;20180;-81
2023/01/11 13:13:09;;;;;;;0.00;0.00;;;11.50;99.90;;;;;;5070348;28;20620;-81
2023/01/11 13:15:44;;;;;;;0.10;0.10;;;11.40;99.90;;;;;;5065170;28;20271;-81
2023/01/11 13:18:26;;;;;;;0.10;0.10;;;11.30;99.90;;;;;;5068680;28;20180;-81
2023/01/11 13:21:29;;;;;;;0.07;0.07;;;11.30;99.90;;;;;;5068412;28;20205;-80
2023/01/11 13:24:01;;;;;;;0.10;0.10;;;11.30;99.90;;;;;;5069431;28;20184;-81
2023/01/11 13:26:35;;;;;;;0.10;0.10;;;11.20;99.90;;;;;;5067171;28;20209;-81
2023/01/11 13:29:05;;;;;;;0.10;0.10;;;11.30;99.90;;;;;;5066072;28;20181;-81
2023/01/11 13:31:35;;;;;;;0.10;0.10;;;11.20;99.90;;;;;;5065611;28;20192;-81
2023/01/11 13:34:06;;;;;;;0.10;0.10;;;11.20;99.90;;;;;;5064971;28;20669;-81
2023/01/11 13:36:44;;;;;;;0.00;0.00;;;11.20;99.90;;;;;;5069803;28;20219;-81
2023/01/11 13:39:39;;;;;;;0.10;0.10;;;11.20;99.90;;;;;;5069725;28;21021;-81
2023/01/11 13:42:21;;;;;;;0.10;0.10;;;11.20;99.90;;;;;;5067697;28;20568;-81
2023/01/11 13:45:07;;;;;;;0.10;0.10;;;11.20;99.90;;;;;;5064278;28;20245;-80
2023/01/11 13:47:42;;;;;;;0.00;0.00;;;11.20;99.90;;;;;;5059730;28;20241;-81